Time;durP1;ratioP1;P1;durP2;ratioP2;P2;SDS_P1;SDS_P2;PMS_P1;PMS_P2;Temp;Humidity;BMP_temperature;BMP_pressure;BME280_temperature;BME280_humidity;BME280_pressure;Samples;Min_cycle;Max_cycle;Signal;HPM_P1;HPM_P2
2021/07/28 00:01:33;;;;;;;6.85;6.20;;;18.30;99.90;;;;;;4976728;28;21150;-70
2021/07/28 00:03:58;;;;;;;6.47;5.93;;;18.30;99.90;;;;;;4962621;28;20291;-71
2021/07/28 00:06:24;;;;;;;6.78;6.18;;;18.30;99.90;;;;;;4980075;28;20923;-71
2021/07/28 00:08:50;;;;;;;6.40;5.80;;;18.40;99.90;;;;;;4981727;28;20173;-70
2021/07/28 00:11:17;;;;;;;7.13;6.40;;;18.40;99.90;;;;;;4980550;28;20179;-70
2021/07/28 00:13:44;;;;;;;6.07;5.23;;;18.40;99.90;;;;;;4981748;28;20451;-70
2021/07/28 00:16:12;;;;;;;5.77;5.27;;;18.40;99.90;;;;;;4976157;28;20459;-71
2021/07/28 00:18:45;;;;;;;7.30;6.60;;;18.40;99.90;;;;;;4975657;28;20408;-72
2021/07/28 00:23:55;;;;;;;6.40;5.80;;;18.40;99.90;;;;;;4976480;28;20427;-70
2021/07/28 00:26:20;;;;;;;6.10;5.60;;;18.40;99.90;;;;;;4976103;28;20420;-72
2021/07/28 00:28:46;;;;;;;6.70;5.47;;;18.40;99.90;;;;;;4976324;28;20522;-72
2021/07/28 00:31:11;;;;;;;10.63;6.77;;;18.40;99.90;;;;;;4975823;28;20231;-70
2021/07/28 00:33:37;;;;;;;6.47;5.70;;;18.40;99.90;;;;;;4976317;28;20469;-72
2021/07/28 00:36:02;;;;;;;7.60;5.87;;;18.50;99.90;;;;;;4976181;28;20224;-71
2021/07/28 00:38:28;;;;;;;6.47;5.87;;;18.50;99.90;;;;;;4975376;28;20242;-72
2021/07/28 00:40:53;;;;;;;7.13;6.47;;;18.50;99.90;;;;;;4957734;28;20205;-72
2021/07/28 00:43:24;;;;;;;6.60;5.97;;;18.30;99.90;;;;;;4975726;28;20647;-72
2021/07/28 00:45:50;;;;;;;7.13;5.70;;;18.40;99.90;;;;;;4975263;28;20590;-71
2021/07/28 00:48:16;;;;;;;6.43;5.93;;;18.40;99.90;;;;;;4975178;28;20452;-71
2021/07/28 00:50:42;;;;;;;7.77;6.00;;;18.40;99.90;;;;;;4975469;28;20412;-71
2021/07/28 00:53:16;;;;;;;7.50;6.03;;;18.40;99.90;;;;;;4974950;28;20617;-72
2021/07/28 00:55:42;;;;;;;10.30;5.57;;;18.40;99.90;;;;;;4975121;28;20413;-72
2021/07/28 00:58:07;;;;;;;10.43;6.40;;;18.40;99.90;;;;;;4975176;28;20416;-72
2021/07/28 01:00:33;;;;;;;8.70;6.40;;;18.40;99.90;;;;;;4974923;28;20264;-72
2021/07/28 01:02:58;;;;;;;8.60;7.37;;;18.40;99.90;;;;;;4974691;28;20259;-72
2021/07/28 01:05:25;;;;;;;7.67;6.13;;;18.40;99.90;;;;;;4974897;28;20667;-72
2021/07/28 01:07:50;;;;;;;8.20;7.40;;;18.30;99.90;;;;;;4973928;28;20768;-72
2021/07/28 01:10:16;;;;;;;6.93;6.30;;;18.40;99.90;;;;;;4975030;28;20169;-72
2021/07/28 01:12:44;;;;;;;9.02;7.22;;;18.40;99.90;;;;;;4974841;28;20492;-72
2021/07/28 01:15:12;;;;;;;9.90;6.67;;;18.40;99.90;;;;;;4974821;28;20268;-71
2021/07/28 01:17:38;;;;;;;7.57;6.60;;;18.40;99.90;;;;;;4975337;28;20467;-71
2021/07/28 01:20:07;;;;;;;7.60;6.70;;;18.40;99.90;;;;;;4974849;28;20452;-71
2021/07/28 01:22:33;;;;;;;7.03;6.33;;;18.40;99.90;;;;;;4974461;28;20207;-71
2021/07/28 01:24:59;;;;;;;9.57;7.10;;;18.40;99.90;;;;;;4974963;28;20405;-71
2021/07/28 01:27:25;;;;;;;10.30;6.60;;;18.40;99.90;;;;;;4975427;28;20408;-71
2021/07/28 01:29:50;;;;;;;7.83;6.43;;;18.40;99.90;;;;;;4974706;28;20228;-71
2021/07/28 01:32:16;;;;;;;16.00;7.80;;;18.30;99.90;;;;;;4975223;28;20428;-71
2021/07/28 01:34:43;;;;;;;7.50;6.77;;;18.40;99.90;;;;;;4983848;28;20554;-71
2021/07/28 01:37:12;;;;;;;7.73;7.00;;;18.40;99.90;;;;;;4993750;28;20231;-71
2021/07/28 01:39:38;;;;;;;11.20;8.10;;;18.40;99.90;;;;;;4994765;28;20474;-71
2021/07/28 01:42:04;;;;;;;7.63;6.93;;;18.30;99.90;;;;;;4982750;28;20412;-71
2021/07/28 01:44:32;;;;;;;9.77;6.83;;;18.30;99.90;;;;;;4977503;28;20423;-71
2021/07/28 01:46:58;;;;;;;8.50;7.20;;;18.30;99.90;;;;;;4978009;28;20187;-71
2021/07/28 01:49:23;;;;;;;9.80;7.33;;;18.30;99.90;;;;;;4978228;28;20524;-71
2021/07/28 01:51:49;;;;;;;8.23;7.37;;;18.20;99.90;;;;;;4978745;28;20223;-72
2021/07/28 01:54:15;;;;;;;7.37;6.70;;;18.20;99.90;;;;;;4978415;28;20208;-72
2021/07/28 01:56:43;;;;;;;7.80;7.00;;;18.20;99.90;;;;;;4978582;28;20228;-71
2021/07/28 01:59:10;;;;;;;10.83;8.33;;;18.20;99.90;;;;;;4960208;28;20212;-72
2021/07/28 02:01:36;;;;;;;8.33;7.50;;;18.30;99.90;;;;;;4978036;28;20404;-71
2021/07/28 02:04:01;;;;;;;8.97;7.90;;;18.20;99.90;;;;;;4978156;28;20793;-72
2021/07/28 02:06:27;;;;;;;10.10;7.80;;;18.20;99.90;;;;;;4976420;28;20173;-71
2021/07/28 02:08:52;;;;;;;8.10;7.40;;;18.20;99.90;;;;;;4977863;28;20602;-71
2021/07/28 02:11:18;;;;;;;11.70;7.90;;;18.20;99.90;;;;;;4980881;28;20243;-72
2021/07/28 02:13:43;;;;;;;8.52;7.60;;;18.20;99.90;;;;;;5001647;28;20516;-72
2021/07/28 02:16:09;;;;;;;9.97;7.73;;;18.20;99.90;;;;;;4990662;28;20189;-71
2021/07/28 02:18:34;;;;;;;8.40;7.60;;;18.20;99.90;;;;;;4977684;28;20418;-71
2021/07/28 02:21:01;;;;;;;7.50;6.80;;;18.20;99.90;;;;;;4977679;28;20212;-71
2021/07/28 02:23:27;;;;;;;7.50;6.80;;;18.20;99.90;;;;;;4977963;28;20696;-71
2021/07/28 02:25:53;;;;;;;7.77;7.00;;;18.20;99.90;;;;;;4977714;28;20416;-71
2021/07/28 02:28:18;;;;;;;7.73;7.03;;;18.20;99.90;;;;;;4977829;28;20192;-71
2021/07/28 02:30:44;;;;;;;8.23;7.37;;;18.20;99.90;;;;;;4978328;28;20180;-71
2021/07/28 02:33:10;;;;;;;11.33;7.20;;;18.20;99.90;;;;;;4978186;28;20682;-71
2021/07/28 02:35:36;;;;;;;12.07;7.90;;;18.30;99.90;;;;;;4981831;28;20161;-72
2021/07/28 02:38:02;;;;;;;10.13;7.77;;;18.20;99.90;;;;;;5002162;28;20157;-72
2021/07/28 02:40:28;;;;;;;9.20;7.53;;;18.20;99.90;;;;;;4988715;28;20472;-71
2021/07/28 02:42:53;;;;;;;10.20;8.40;;;18.20;99.90;;;;;;4977638;28;20201;-71
2021/07/28 02:45:19;;;;;;;10.67;8.43;;;18.20;99.90;;;;;;4977330;28;20415;-71
2021/07/28 02:47:45;;;;;;;10.40;8.73;;;18.20;99.90;;;;;;4976700;28;20410;-71
2021/07/28 02:50:11;;;;;;;9.20;8.30;;;18.20;99.90;;;;;;4978390;28;20188;-71
2021/07/28 02:52:37;;;;;;;8.37;7.43;;;18.20;99.90;;;;;;4977464;28;20429;-70
2021/07/28 02:55:06;;;;;;;10.17;9.13;;;18.10;99.90;;;;;;4977910;28;20423;-71
2021/07/28 02:57:33;;;;;;;11.00;8.70;;;18.10;99.90;;;;;;4960118;28;20180;-71
2021/07/28 02:59:59;;;;;;;9.13;7.67;;;18.10;99.90;;;;;;4976931;28;20479;-71
2021/07/28 03:02:24;;;;;;;9.53;7.93;;;18.10;99.90;;;;;;4975988;28;20539;-71
2021/07/28 03:04:50;;;;;;;9.90;7.83;;;18.10;99.90;;;;;;4977046;28;20207;-71
2021/07/28 03:07:15;;;;;;;9.83;8.53;;;18.10;99.90;;;;;;4976604;28;20186;-71
2021/07/28 03:09:41;;;;;;;9.83;8.20;;;18.10;99.90;;;;;;4977103;28;20562;-71
2021/07/28 03:12:07;;;;;;;9.63;8.50;;;18.10;99.90;;;;;;4977129;28;20188;-71
2021/07/28 03:14:33;;;;;;;9.13;8.33;;;18.10;99.90;;;;;;4976654;28;20177;-71
2021/07/28 03:16:58;;;;;;;12.27;8.20;;;18.10;99.90;;;;;;4977251;28;20424;-71
2021/07/28 03:19:24;;;;;;;10.23;9.10;;;18.20;99.90;;;;;;4977158;28;20234;-70
2021/07/28 03:21:50;;;;;;;10.67;8.07;;;18.20;99.90;;;;;;4978189;28;20173;-71
2021/07/28 03:24:17;;;;;;;8.90;8.10;;;18.20;99.90;;;;;;4976490;28;20217;-71
2021/07/28 03:26:43;;;;;;;9.80;8.90;;;18.20;99.90;;;;;;4975711;28;20795;-71
2021/07/28 03:29:08;;;;;;;9.60;8.60;;;18.20;99.90;;;;;;4976016;28;20455;-71
2021/07/28 03:31:34;;;;;;;9.93;9.00;;;18.20;99.90;;;;;;4977140;28;20192;-71
2021/07/28 03:33:59;;;;;;;8.87;7.60;;;18.20;99.90;;;;;;4976443;28;20551;-71
2021/07/28 03:36:25;;;;;;;9.57;8.50;;;18.10;99.90;;;;;;4976250;28;20265;-71
2021/07/28 03:38:50;;;;;;;10.40;8.30;;;18.20;99.90;;;;;;4976720;28;20618;-71
2021/07/28 03:41:16;;;;;;;9.30;8.40;;;18.20;99.90;;;;;;4976684;28;20251;-71
2021/07/28 03:43:41;;;;;;;9.10;8.00;;;18.20;99.90;;;;;;4977001;28;20204;-71
2021/07/28 03:46:07;;;;;;;9.53;8.50;;;18.20;99.90;;;;;;4976576;28;20212;-71
2021/07/28 03:48:32;;;;;;;9.47;8.43;;;18.20;99.90;;;;;;4975676;28;20169;-71
2021/07/28 03:50:58;;;;;;;11.40;8.40;;;18.10;99.90;;;;;;4976367;28;20626;-71
2021/07/28 03:53:24;;;;;;;9.10;8.20;;;18.10;99.90;;;;;;4976095;28;20946;-71
2021/07/28 03:55:49;;;;;;;9.63;7.77;;;18.20;99.90;;;;;;4976054;28;20972;-71
2021/07/28 03:58:15;;;;;;;9.10;8.20;;;18.20;99.90;;;;;;4976921;28;20451;-72
2021/07/28 04:00:40;;;;;;;11.07;9.60;;;18.20;99.90;;;;;;4974781;28;20927;-71
2021/07/28 04:03:06;;;;;;;10.27;9.27;;;18.20;99.90;;;;;;4976008;28;20193;-72
2021/07/28 04:05:31;;;;;;;8.73;7.83;;;18.30;99.90;;;;;;4975862;28;20245;-71
2021/07/28 04:07:57;;;;;;;10.30;8.67;;;18.30;99.90;;;;;;4975929;28;20173;-72
2021/07/28 04:10:23;;;;;;;9.00;7.80;;;18.30;99.90;;;;;;4975925;28;20552;-72
2021/07/28 04:12:49;;;;;;;9.50;8.50;;;18.30;99.90;;;;;;4975393;28;20192;-71
2021/07/28 04:15:14;;;;;;;11.67;8.33;;;18.30;99.90;;;;;;4976020;28;20407;-71
2021/07/28 04:17:40;;;;;;;8.70;7.80;;;18.30;99.90;;;;;;4975732;28;20243;-71
2021/07/28 04:20:06;;;;;;;8.13;7.30;;;18.30;99.90;;;;;;4975556;28;20279;-71
2021/07/28 04:22:32;;;;;;;9.70;8.87;;;18.30;99.90;;;;;;4975311;28;20224;-71
2021/07/28 04:24:57;;;;;;;8.50;7.70;;;18.30;99.90;;;;;;4975261;28;20417;-71
2021/07/28 04:27:25;;;;;;;8.57;7.63;;;18.40;99.90;;;;;;4976173;28;20263;-71
2021/07/28 04:29:51;;;;;;;9.47;8.50;;;18.30;99.90;;;;;;4975810;28;20165;-71
2021/07/28 04:32:16;;;;;;;9.50;8.60;;;18.30;99.90;;;;;;4958057;28;20973;-71
2021/07/28 04:34:42;;;;;;;9.27;7.80;;;18.30;99.90;;;;;;4975827;28;20417;-71
2021/07/28 04:37:07;;;;;;;11.10;8.20;;;18.30;99.90;;;;;;4975593;28;20181;-70
2021/07/28 04:39:34;;;;;;;7.60;6.97;;;18.30;99.90;;;;;;4975107;28;20324;-71
2021/07/28 04:41:59;;;;;;;9.53;8.53;;;18.30;99.90;;;;;;4975724;28;20238;-71
2021/07/28 04:44:25;;;;;;;9.70;8.10;;;18.40;99.90;;;;;;4976003;28;20445;-70
2021/07/28 04:46:50;;;;;;;9.37;7.93;;;18.40;99.90;;;;;;4975680;28;20216;-70
2021/07/28 04:49:16;;;;;;;8.43;7.50;;;18.40;99.90;;;;;;4989234;28;20180;-71
2021/07/28 04:51:41;;;;;;;8.90;7.93;;;18.50;99.90;;;;;;4998821;28;20212;-70
2021/07/28 04:54:07;;;;;;;9.77;7.87;;;18.50;99.90;;;;;;4990087;28;20244;-70
2021/07/28 04:56:32;;;;;;;8.17;7.37;;;18.50;99.90;;;;;;4975078;28;20374;-70
2021/07/28 04:58:58;;;;;;;9.23;8.33;;;18.50;99.90;;;;;;4976042;28;20239;-71
2021/07/28 05:01:23;;;;;;;11.70;8.30;;;18.50;99.90;;;;;;4957506;28;20654;-71
2021/07/28 05:03:49;;;;;;;8.87;8.07;;;18.60;99.90;;;;;;4974787;28;20279;-71
2021/07/28 05:06:14;;;;;;;9.53;8.47;;;18.60;99.90;;;;;;4974244;28;20445;-72
2021/07/28 05:08:40;;;;;;;8.60;7.57;;;18.60;99.90;;;;;;4972942;28;20469;-72
2021/07/28 05:11:06;;;;;;;9.30;8.40;;;18.60;99.90;;;;;;4982824;28;20276;-73
2021/07/28 05:13:34;;;;;;;8.83;8.00;;;18.60;99.90;;;;;;4984744;28;20709;-72
2021/07/28 05:16:00;;;;;;;10.87;7.67;;;18.60;99.90;;;;;;4974395;28;20173;-71
2021/07/28 05:18:26;;;;;;;10.07;7.90;;;18.60;99.90;;;;;;4974503;28;20788;-72
2021/07/28 05:20:51;;;;;;;9.93;7.30;;;18.60;99.90;;;;;;4977036;28;20213;-71
2021/07/28 05:23:17;;;;;;;8.80;7.90;;;18.60;99.90;;;;;;4978047;28;20211;-71
2021/07/28 05:25:42;;;;;;;9.73;8.80;;;18.60;99.90;;;;;;4967366;29;20166;-71
2021/07/28 05:28:08;;;;;;;8.27;7.50;;;18.60;99.90;;;;;;4993623;28;20204;-74
2021/07/28 05:30:34;;;;;;;8.57;7.67;;;18.60;99.90;;;;;;4979066;28;20235;-71
2021/07/28 05:33:00;;;;;;;9.00;7.70;;;18.60;99.90;;;;;;4978388;28;20204;-71
2021/07/28 05:35:26;;;;;;;9.02;8.13;;;18.60;99.90;;;;;;4976274;28;20428;-71
2021/07/28 05:38:02;;;;;;;8.40;7.60;;;18.60;99.90;;;;;;4978863;28;20241;-71
2021/07/28 05:40:28;;;;;;;8.93;7.50;;;18.60;99.90;;;;;;4977668;28;20228;-71
2021/07/28 05:42:54;;;;;;;9.30;7.93;;;18.60;99.90;;;;;;4977911;28;20937;-70
2021/07/28 05:45:20;;;;;;;8.23;7.20;;;18.60;99.90;;;;;;4977456;28;20428;-72
2021/07/28 05:47:45;;;;;;;10.63;7.83;;;18.60;99.90;;;;;;4980008;28;20181;-73
2021/07/28 05:50:15;;;;;;;8.27;7.47;;;18.60;99.90;;;;;;4987214;28;20237;-73
2021/07/28 05:52:41;;;;;;;8.10;7.00;;;18.70;99.90;;;;;;4985690;28;20669;-72
2021/07/28 05:55:08;;;;;;;8.20;7.40;;;18.70;99.90;;;;;;4980120;28;20428;-72
2021/07/28 05:57:33;;;;;;;8.23;7.40;;;18.70;99.90;;;;;;4979779;28;20440;-71
2021/07/28 05:59:59;;;;;;;8.17;7.27;;;18.60;99.90;;;;;;4978648;28;20479;-72
2021/07/28 06:02:24;;;;;;;7.70;6.90;;;18.60;99.90;;;;;;4979042;28;20209;-72
2021/07/28 06:04:50;;;;;;;8.47;7.67;;;18.70;99.90;;;;;;4978799;28;20188;-72
2021/07/28 06:07:15;;;;;;;7.50;6.80;;;18.70;99.90;;;;;;4978583;28;20263;-72
2021/07/28 06:09:41;;;;;;;8.63;7.30;;;18.70;99.90;;;;;;4977576;28;20203;-71
2021/07/28 06:12:10;;;;;;;7.43;6.73;;;18.70;99.90;;;;;;4977419;28;20208;-71
2021/07/28 06:14:36;;;;;;;8.63;7.82;;;18.70;99.90;;;;;;4958500;28;20561;-71
2021/07/28 06:17:01;;;;;;;7.80;7.00;;;18.70;99.90;;;;;;4964385;28;20181;-71
2021/07/28 06:19:27;;;;;;;8.57;6.63;;;18.70;99.90;;;;;;4976963;28;20287;-72
2021/07/28 06:21:52;;;;;;;8.10;7.40;;;18.80;99.90;;;;;;4976719;28;20201;-72
2021/07/28 06:24:18;;;;;;;8.00;6.60;;;18.80;99.90;;;;;;4977600;28;20211;-71
2021/07/28 06:26:44;;;;;;;7.93;7.10;;;18.90;99.90;;;;;;4983574;28;20192;-72
2021/07/28 06:29:09;;;;;;;7.40;6.70;;;19.00;99.90;;;;;;4974251;28;20180;-71
2021/07/28 06:31:35;;;;;;;7.10;6.40;;;19.10;99.90;;;;;;4977338;28;20530;-71
2021/07/28 06:34:01;;;;;;;7.43;6.73;;;19.10;99.90;;;;;;4973746;28;20205;-72
2021/07/28 06:36:26;;;;;;;8.20;7.00;;;19.20;99.90;;;;;;4973568;28;20188;-70
2021/07/28 06:38:52;;;;;;;7.33;6.53;;;19.20;99.90;;;;;;4974186;28;20199;-73
2021/07/28 06:41:17;;;;;;;7.57;6.77;;;19.20;99.90;;;;;;4974712;28;20643;-72
2021/07/28 06:43:43;;;;;;;7.03;6.33;;;19.20;99.90;;;;;;4974870;28;20213;-71
2021/07/28 06:46:08;;;;;;;8.00;7.20;;;19.20;99.90;;;;;;4974996;28;20181;-71
2021/07/28 06:48:34;;;;;;;7.32;6.72;;;19.20;99.90;;;;;;4970912;28;21002;-72
2021/07/28 06:50:59;;;;;;;9.37;6.80;;;19.20;99.90;;;;;;4975496;28;20705;-71
2021/07/28 06:53:25;;;;;;;7.80;7.00;;;19.10;99.90;;;;;;4977471;28;20201;-71
2021/07/28 06:55:52;;;;;;;6.70;6.07;;;19.10;99.90;;;;;;4976382;28;20193;-71
2021/07/28 06:58:18;;;;;;;7.27;6.40;;;19.10;99.90;;;;;;4977491;28;20181;-72
2021/07/28 07:00:44;;;;;;;7.47;6.80;;;19.20;99.90;;;;;;4974879;28;20475;-72
2021/07/28 07:03:09;;;;;;;6.93;6.30;;;19.20;99.90;;;;;;4972962;28;20444;-72
2021/07/28 07:05:35;;;;;;;7.17;6.47;;;19.20;99.90;;;;;;4999493;28;20195;-71
2021/07/28 07:08:00;;;;;;;6.80;6.20;;;19.20;99.90;;;;;;5006083;28;20184;-72
2021/07/28 07:10:26;;;;;;;6.87;6.27;;;19.30;99.90;;;;;;5012024;28;20203;-72
2021/07/28 07:12:51;;;;;;;6.63;6.00;;;19.30;99.90;;;;;;5012674;28;20208;-72
2021/07/28 07:15:17;;;;;;;6.70;6.00;;;19.30;99.90;;;;;;5012026;28;20199;-72
2021/07/28 07:17:42;;;;;;;8.30;7.10;;;19.30;99.90;;;;;;5012274;28;20442;-72
2021/07/28 07:20:09;;;;;;;6.87;6.27;;;19.40;99.90;;;;;;5013869;28;20458;-71
2021/07/28 07:22:34;;;;;;;7.55;6.85;;;19.50;99.90;;;;;;5004590;28;20505;-71
2021/07/28 07:25:00;;;;;;;7.00;6.30;;;19.50;99.90;;;;;;5010439;28;20179;-72
2021/07/28 07:27:25;;;;;;;7.93;7.13;;;19.60;99.90;;;;;;4997102;28;20207;-71
2021/07/28 07:29:51;;;;;;;7.27;6.17;;;19.70;99.90;;;;;;5007634;28;20184;-72
2021/07/28 07:32:26;;;;;;;6.80;6.10;;;19.60;99.90;;;;;;4995511;28;20199;-71
2021/07/28 07:34:52;;;;;;;8.37;6.97;;;19.60;99.90;;;;;;5011258;28;20218;-70
2021/07/28 07:37:17;;;;;;;9.80;6.13;;;19.60;99.90;;;;;;4990747;28;20486;-71
2021/07/28 07:39:43;;;;;;;6.60;6.00;;;19.80;99.90;;;;;;4991937;28;20220;-71
2021/07/28 07:42:08;;;;;;;7.80;6.43;;;19.90;99.90;;;;;;5011200;28;20233;-71
2021/07/28 07:44:34;;;;;;;8.17;7.33;;;20.00;99.90;;;;;;5002308;28;20172;-71
2021/07/28 07:47:00;;;;;;;7.10;6.50;;;20.20;99.90;;;;;;5011191;28;20207;-72
2021/07/28 07:49:26;;;;;;;6.30;5.70;;;20.30;99.90;;;;;;5010243;28;20187;-72
2021/07/28 07:51:51;;;;;;;6.23;5.63;;;20.40;99.90;;;;;;5010976;28;20294;-71
2021/07/28 07:54:17;;;;;;;7.23;6.53;;;20.50;99.90;;;;;;4995397;28;20230;-72
2021/07/28 07:56:42;;;;;;;7.22;6.53;;;20.50;99.90;;;;;;5010598;28;20446;-72
2021/07/28 07:59:08;;;;;;;6.77;6.17;;;20.60;99.90;;;;;;5011083;28;20199;-72
2021/07/28 08:01:34;;;;;;;9.53;6.00;;;20.60;99.90;;;;;;5011127;28;20584;-72
2021/07/28 08:03:59;;;;;;;8.13;6.07;;;20.60;99.90;;;;;;5011212;28;20210;-72
2021/07/28 08:06:25;;;;;;;8.00;6.50;;;20.70;99.90;;;;;;5010800;28;20215;-71
2021/07/28 08:08:50;;;;;;;7.00;6.00;;;20.70;99.90;;;;;;5011950;28;20195;-72
2021/07/28 08:11:16;;;;;;;6.80;6.10;;;20.90;99.90;;;;;;5012104;28;20200;-71
2021/07/28 08:13:42;;;;;;;7.60;6.20;;;20.90;99.90;;;;;;5011322;28;20199;-71
2021/07/28 08:16:20;;;;;;;6.80;6.20;;;21.10;99.90;;;;;;5011242;28;20179;-71
2021/07/28 08:18:46;;;;;;;6.93;6.33;;;21.30;99.90;;;;;;5011767;28;20414;-72
2021/07/28 08:21:13;;;;;;;7.30;5.30;;;21.50;99.90;;;;;;5010001;28;20462;-72
2021/07/28 08:23:40;;;;;;;6.50;5.90;;;21.50;99.90;;;;;;5007495;28;20443;-72
2021/07/28 08:26:06;;;;;;;7.17;6.47;;;21.50;99.90;;;;;;4994922;28;20435;-72
2021/07/28 08:28:32;;;;;;;8.10;6.63;;;21.40;99.90;;;;;;4993233;28;20454;-71
2021/07/28 08:30:58;;;;;;;6.60;5.77;;;21.30;99.90;;;;;;5011361;28;20450;-74
2021/07/28 08:33:28;;;;;;;14.37;7.00;;;21.20;99.90;;;;;;5012808;28;20220;-71
2021/07/28 08:35:55;;;;;;;19.50;8.40;;;21.00;99.90;;;;;;5015138;28;20671;-72
2021/07/28 08:38:21;;;;;;;5.40;4.90;;;20.60;99.90;;;;;;5014528;28;20908;-71
2021/07/28 08:40:50;;;;;;;6.90;4.70;;;20.20;99.90;;;;;;5013282;28;20518;-71
2021/07/28 08:43:19;;;;;;;5.20;4.80;;;19.90;99.90;;;;;;5011984;28;20546;-71
2021/07/28 08:45:49;;;;;;;6.90;5.63;;;19.50;99.90;;;;;;5007333;28;20521;-71
2021/07/28 08:48:17;;;;;;;6.50;5.77;;;19.30;99.90;;;;;;5008602;28;20458;-73
2021/07/28 08:50:47;;;;;;;7.07;5.37;;;19.30;99.90;;;;;;4999146;28;20433;-71
2021/07/28 08:53:12;;;;;;;9.20;5.40;;;19.30;99.90;;;;;;4993567;28;20868;-71
2021/07/28 08:55:39;;;;;;;4.57;3.80;;;19.30;99.90;;;;;;4996355;28;20451;-71
2021/07/28 08:58:07;;;;;;;4.45;4.05;;;19.40;99.90;;;;;;4990785;28;20431;-71
2021/07/28 09:00:43;;;;;;;5.10;3.83;;;19.50;99.90;;;;;;4996799;28;20276;-72
2021/07/28 09:03:10;;;;;;;4.15;3.85;;;19.50;99.90;;;;;;5011992;28;20579;-73
2021/07/28 09:05:59;;;;;;;4.80;4.20;;;19.60;99.90;;;;;;5004993;28;20459;-71
2021/07/28 09:08:26;;;;;;;4.90;3.90;;;19.70;99.90;;;;;;4969811;28;20790;-72
2021/07/28 09:10:55;;;;;;;4.57;4.13;;;19.70;99.90;;;;;;4972878;28;20448;-71
2021/07/28 09:13:31;;;;;;;6.30;5.20;;;19.70;99.90;;;;;;4972417;28;20562;-71
2021/07/28 09:16:05;;;;;;;6.13;4.70;;;19.70;99.90;;;;;;4972308;28;20443;-72
2021/07/28 09:18:36;;;;;;;5.83;5.33;;;19.70;99.90;;;;;;4972139;28;20416;-72
2021/07/28 09:21:23;;;;;;;8.23;5.50;;;19.80;99.90;;;;;;4972541;28;20483;-71
2021/07/28 09:23:57;;;;;;;6.10;5.50;;;19.80;99.90;;;;;;4968531;28;20455;-71
2021/07/28 09:26:33;;;;;;;8.23;6.20;;;19.90;99.90;;;;;;4971918;28;21250;-72
2021/07/28 09:29:09;;;;;;;6.80;6.20;;;19.90;99.90;;;;;;4970781;28;20423;-72
2021/07/28 09:31:35;;;;;;;7.00;6.30;;;19.90;99.90;;;;;;4971657;28;20416;-72
2021/07/28 09:34:07;;;;;;;10.13;6.37;;;19.90;99.90;;;;;;4971140;28;20440;-71
2021/07/28 09:36:35;;;;;;;8.53;6.20;;;20.20;99.90;;;;;;4972509;28;20408;-71
2021/07/28 09:39:02;;;;;;;7.00;6.10;;;20.30;99.90;;;;;;4974827;28;20805;-71
2021/07/28 09:41:28;;;;;;;10.93;6.90;;;20.30;99.90;;;;;;4975358;28;20405;-71
2021/07/28 09:43:58;;;;;;;8.23;6.97;;;20.30;99.90;;;;;;4975085;28;20471;-72
2021/07/28 09:46:27;;;;;;;9.43;6.50;;;20.50;99.90;;;;;;4975114;28;20154;-71
2021/07/28 09:48:53;;;;;;;9.53;6.43;;;20.60;99.90;;;;;;4975652;28;20419;-72
2021/07/28 09:51:28;;;;;;;8.63;7.73;;;20.50;99.90;;;;;;4976186;28;20412;-72
2021/07/28 09:53:59;;;;;;;10.43;7.70;;;20.50;99.90;;;;;;4975631;28;20841;-72
2021/07/28 09:56:37;;;;;;;9.40;8.10;;;20.60;99.90;;;;;;4976653;28;20930;-71
2021/07/28 09:59:04;;;;;;;8.50;7.70;;;20.70;99.90;;;;;;4974431;28;20428;-71
2021/07/28 10:01:33;;;;;;;11.33;7.90;;;20.80;99.90;;;;;;4976855;28;20421;-72
2021/07/28 10:03:59;;;;;;;12.80;11.17;;;20.80;99.90;;;;;;4991570;28;21055;-72
2021/07/28 10:06:31;;;;;;;10.67;7.63;;;20.90;99.90;;;;;;4990280;28;20428;-72
2021/07/28 10:08:58;;;;;;;9.43;7.32;;;20.90;99.90;;;;;;4973653;28;20916;-72
2021/07/28 10:11:24;;;;;;;7.30;6.80;;;21.10;99.90;;;;;;4972928;28;20586;-71
2021/07/28 10:13:53;;;;;;;7.83;6.93;;;21.30;99.90;;;;;;4976562;28;20498;-72
2021/07/28 10:16:19;;;;;;;7.53;6.93;;;21.30;99.90;;;;;;4961127;28;20215;-71
2021/07/28 10:18:46;;;;;;;8.00;7.23;;;21.30;99.90;;;;;;4975097;28;20444;-71
2021/07/28 10:21:11;;;;;;;7.27;6.73;;;21.40;99.90;;;;;;4973089;28;20220;-70
2021/07/28 10:23:37;;;;;;;7.73;7.03;;;21.50;99.90;;;;;;4974690;28;20572;-70
2021/07/28 10:26:05;;;;;;;8.20;7.20;;;21.50;99.90;;;;;;4974620;28;20220;-74
2021/07/28 10:28:32;;;;;;;6.53;5.90;;;21.40;99.90;;;;;;4974790;28;20789;-71
2021/07/28 10:31:11;;;;;;;6.00;5.60;;;21.20;99.90;;;;;;4974657;28;20428;-71
2021/07/28 10:33:56;;;;;;;5.87;5.37;;;21.10;99.90;;;;;;4974215;28;20459;-71
2021/07/28 10:36:42;;;;;;;5.97;5.47;;;21.10;99.90;;;;;;4973977;28;20454;-71
2021/07/28 10:39:08;;;;;;;8.97;6.13;;;21.10;99.90;;;;;;4974226;28;20436;-72
2021/07/28 10:41:37;;;;;;;7.53;6.80;;;21.00;99.90;;;;;;4974168;28;20422;-72
2021/07/28 10:44:14;;;;;;;7.70;7.00;;;20.90;99.90;;;;;;4974047;28;20193;-71
2021/07/28 10:46:55;;;;;;;6.77;6.13;;;20.80;99.90;;;;;;4973712;28;20467;-71
2021/07/28 10:49:36;;;;;;;8.00;7.30;;;20.90;99.90;;;;;;4974363;28;20423;-71
2021/07/28 10:52:03;;;;;;;7.07;6.40;;;21.10;99.90;;;;;;4974166;28;20430;-71
2021/07/28 10:57:34;;;;;;;8.13;6.87;;;21.10;99.90;;;;;;4973978;28;20798;-71
2021/07/28 11:00:04;;;;;;;5.63;5.13;;;21.10;99.90;;;;;;4974864;28;20547;-71
2021/07/28 11:03:08;;;;;;;5.43;4.93;;;21.20;99.90;;;;;;4974330;28;20440;-72
2021/07/28 11:05:35;;;;;;;7.67;5.10;;;21.10;99.90;;;;;;4974200;28;20494;-71
2021/07/28 11:08:07;;;;;;;6.43;5.90;;;21.10;99.90;;;;;;4974121;28;20444;-70
2021/07/28 11:10:48;;;;;;;5.40;4.87;;;21.20;99.90;;;;;;4974036;28;20424;-71
2021/07/28 11:13:18;;;;;;;6.73;4.83;;;21.10;99.90;;;;;;4973587;28;20448;-72
2021/07/28 11:15:54;;;;;;;5.82;5.30;;;21.20;99.90;;;;;;4963872;28;20426;-71
2021/07/28 11:18:37;;;;;;;4.93;4.43;;;21.30;99.90;;;;;;4974191;28;20642;-72
2021/07/28 11:21:32;;;;;;;4.90;4.47;;;21.50;99.90;;;;;;4965553;28;20444;-72
2021/07/28 11:24:02;;;;;;;4.40;4.10;;;21.60;99.90;;;;;;4967148;28;20468;-72
2021/07/28 11:26:29;;;;;;;4.30;3.90;;;21.80;99.90;;;;;;4973564;28;20416;-70
2021/07/28 11:29:00;;;;;;;4.70;4.13;;;22.00;99.90;;;;;;4974216;28;20920;-70
2021/07/28 11:31:30;;;;;;;5.13;4.60;;;22.00;99.90;;;;;;4974405;28;20427;-71
2021/07/28 11:34:14;;;;;;;6.77;4.70;;;21.90;99.90;;;;;;4973680;28;20440;-72
2021/07/28 11:36:42;;;;;;;3.60;3.30;;;21.80;99.90;;;;;;4973646;28;20470;-70
2021/07/28 11:39:13;;;;;;;4.90;4.40;;;21.70;99.90;;;;;;4974948;28;20950;-71
2021/07/28 11:41:39;;;;;;;5.00;4.60;;;21.60;99.90;;;;;;4974886;28;20414;-71
2021/07/28 11:44:05;;;;;;;5.17;4.67;;;21.60;99.90;;;;;;4975701;28;20215;-71
2021/07/28 11:46:30;;;;;;;5.90;5.30;;;21.60;99.90;;;;;;4975807;28;20185;-71
2021/07/28 11:49:00;;;;;;;6.00;4.20;;;21.60;99.90;;;;;;4976389;28;20236;-71
2021/07/28 11:51:28;;;;;;;4.57;4.13;;;21.60;99.90;;;;;;4976702;28;20268;-71
2021/07/28 11:54:07;;;;;;;4.73;3.93;;;21.70;99.90;;;;;;4978043;28;20499;-72
2021/07/28 11:56:33;;;;;;;5.00;4.50;;;21.70;99.90;;;;;;4985574;28;20416;-72
2021/07/28 11:58:59;;;;;;;4.63;4.23;;;21.70;99.90;;;;;;4997508;28;20499;-71
2021/07/28 12:01:28;;;;;;;7.17;4.30;;;21.70;99.90;;;;;;4978701;28;20456;-72
2021/07/28 12:04:05;;;;;;;4.73;4.30;;;21.80;99.90;;;;;;4974299;28;20211;-71
2021/07/28 12:06:34;;;;;;;3.93;3.63;;;21.80;99.90;;;;;;4972546;28;20522;-72
2021/07/28 12:09:08;;;;;;;5.17;4.13;;;21.90;99.90;;;;;;4973194;28;20832;-71
2021/07/28 12:11:49;;;;;;;3.90;3.60;;;21.90;99.90;;;;;;4973632;28;20423;-72
2021/07/28 12:14:42;;;;;;;5.40;4.45;;;22.00;99.90;;;;;;4977044;28;20414;-71
2021/07/28 12:17:17;;;;;;;4.53;4.13;;;21.90;99.90;;;;;;4961880;28;20176;-71
2021/07/28 12:20:01;;;;;;;4.87;4.37;;;21.90;99.90;;;;;;4975240;28;20438;-71
2021/07/28 12:22:41;;;;;;;6.93;4.10;;;21.90;99.90;;;;;;4991798;28;20447;-71
2021/07/28 12:25:14;;;;;;;4.70;4.27;;;21.80;99.90;;;;;;4989795;28;20431;-72
2021/07/28 12:27:59;;;;;;;4.40;3.83;;;21.80;99.90;;;;;;4972934;28;20439;-71
2021/07/28 12:30:39;;;;;;;6.03;3.70;;;22.00;99.90;;;;;;4972736;28;20423;-71
2021/07/28 12:33:04;;;;;;;5.20;4.10;;;22.00;99.90;;;;;;4971853;28;20542;-71
2021/07/28 12:35:40;;;;;;;4.20;3.87;;;21.90;99.90;;;;;;4971456;28;20523;-71
2021/07/28 12:38:06;;;;;;;8.50;4.50;;;21.90;99.90;;;;;;4973677;28;20180;-70
2021/07/28 12:40:32;;;;;;;4.50;4.10;;;22.00;99.90;;;;;;4971014;28;20848;-71
2021/07/28 12:42:58;;;;;;;4.13;3.70;;;22.00;99.90;;;;;;4971136;28;20706;-72
2021/07/28 12:45:24;;;;;;;3.80;3.50;;;22.10;99.90;;;;;;4964906;28;20411;-72
2021/07/28 12:47:49;;;;;;;3.53;3.23;;;22.20;99.90;;;;;;4968689;28;20594;-71
2021/07/28 12:50:17;;;;;;;3.60;3.30;;;22.20;99.70;;;;;;4974643;28;20195;-74
2021/07/28 12:52:43;;;;;;;3.67;3.27;;;22.20;99.70;;;;;;4963670;28;20682;-71
2021/07/28 12:55:10;;;;;;;6.63;3.00;;;22.20;99.00;;;;;;4987077;28;20435;-71